Svitzer Sines — CSYI4 — position and weather

sailwx.info

Track history (hours):
 
Tides and Currents Weather Stations Pressure Air Temp Water Temp Dewpoint Dewpoint Depression Visibility Wind Speed Wind Dir Waves Ship Positions

Svitzer Sines

Last reported at 2016-May-24 04:33 UTC. Time now 2016-May-24 06:08 UTC.
Position N 38°42' W 009°10'.

Length 26 m; draft 4 m.

Type: Tug. MMSI: 263601890.

Date/timePositionNaut miles runAvg speedWind from/ knotsBaromVisibWave heightAir tempDewpointWater temp
2016-May-24 04:33N 38°42' W 009°10'0 0.0
2016-May-24 03:33N 38°42' W 009°10'0 0.0
2016-May-24 02:33N 38°42' W 009°10'0 0.0
2016-May-24 01:33N 38°42' W 009°10'0 0.0
2016-May-24 00:33N 38°42' W 009°10'0 0.0
2016-May-23 23:33N 38°42' W 009°10'0 0.0
2016-May-23 22:33N 38°42' W 009°10'0 0.0
2016-May-23 21:33N 38°42' W 009°10'0 0.0
2016-May-23 20:33N 38°42' W 009°10'0 0.0
2016-May-23 19:33N 38°42' W 009°10'0 0.0
2016-May-23 18:33N 38°42' W 009°10'0 0.0
2016-May-23 17:33N 38°42' W 009°10'0 0.0
2016-May-23 16:33N 38°42' W 009°10'2 1.7
2016-May-23 15:33N 38°41' W 009°11'2 1.7
2016-May-23 14:33N 38°42' W 009°10'0 0.1
2016-May-23 13:33N 38°42' W 009°10'0 0.0
2016-May-23 12:33N 38°42' W 009°10'0 0.3
2016-May-23 11:33N 38°42' W 009°09'2 2.0
2016-May-23 10:33N 38°40' W 009°09'2 2.1
2016-May-23 09:33N 38°42' W 009°10'2 2.0
2016-May-23 08:33N 38°40' W 009°09'2 2.1
2016-May-23 07:33N 38°42' W 009°10'0 0.0
2016-May-23 06:33N 38°42' W 009°10'0 0.0
2016-May-23 05:33N 38°42' W 009°10'1 0.9
2016-May-23 04:33N 38°42' W 009°11'3 2.8
2016-May-23 03:33N 38°41' W 009°14'2 2.5
2016-May-23 02:33N 38°42' W 009°11'1 1.3
2016-May-23 01:33N 38°42' W 009°10'0 0.0
2016-May-23 00:33N 38°42' W 009°10'0 0.0
2016-May-22 23:33N 38°42' W 009°10'0 0.0
2016-May-22 22:33N 38°42' W 009°10'0 0.0
2016-May-22 21:33N 38°42' W 009°10'0 0.0
2016-May-22 20:33N 38°42' W 009°10'0 0.0
2016-May-22 19:33N 38°42' W 009°10'0 0.0
2016-May-22 18:33N 38°42' W 009°10'0 0.0
2016-May-22 17:33N 38°42' W 009°10'0 0.0
2016-May-22 16:33N 38°42' W 009°10'5 4.9
2016-May-22 15:33N 38°41' W 009°04'6 5.6
2016-May-22 14:32N 38°41' W 009°11'1 0.8
2016-May-22 13:33N 38°42' W 009°10'1 0.6
2016-May-22 12:33N 38°42' W 009°10'0 0.0
2016-May-22 11:33N 38°42' W 009°10'0 0.0
2016-May-22 10:33N 38°42' W 009°10'0 0.2
2016-May-22 09:33N 38°42' W 009°09'0 0.1
2016-May-22 08:33N 38°42' W 009°09'0 0.2
2016-May-22 07:33N 38°42' W 009°09'0 0.3
2016-May-22 06:33N 38°42' W 009°10'2 1.9
2016-May-22 05:33N 38°40' W 009°08'1 1.3
2016-May-22 04:33N 38°42' W 009°08'1 1.1
2016-May-22 03:33N 38°42' W 009°10'0 0.0
2016-May-22 02:33N 38°42' W 009°10'0 0.0
2016-May-22 01:33N 38°42' W 009°10'0 0.0
2016-May-22 00:33N 38°42' W 009°10'0 0.0
2016-May-21 23:33N 38°42' W 009°10'0 0.0
2016-May-21 22:33N 38°42' W 009°10'0 0.0
2016-May-21 21:33N 38°42' W 009°10'0 0.0
2016-May-21 20:33N 38°42' W 009°10'0 0.0
2016-May-21 19:33N 38°42' W 009°10'0 0.0
2016-May-21 18:33N 38°42' W 009°10'1 0.7
2016-May-21 17:33N 38°42' W 009°10'0 0.4
2016-May-21 16:33N 38°42' W 009°10'0 0.3
2016-May-21 15:33N 38°42' W 009°10'0 0.0
2016-May-21 14:33N 38°42' W 009°10'0 0.0
2016-May-21 13:33N 38°42' W 009°10'0 0.0
2016-May-21 12:32N 38°42' W 009°10'1 0.6
2016-May-21 11:33N 38°42' W 009°10'5 4.7
2016-May-21 10:33N 38°41' W 009°04'4 4.1
2016-May-21 09:34N 38°42' W 009°10'0 0.3
2016-May-21 08:33N 38°42' W 009°10'1 0.9
2016-May-21 07:33N 38°42' W 009°09'1 0.9
2016-May-21 06:33N 38°42' W 009°10'0 0.0
2016-May-21 05:33N 38°42' W 009°10'0 0.0
2016-May-21 04:33N 38°42' W 009°10'0 0.0
2016-May-21 03:33N 38°42' W 009°10'0 0.0
2016-May-21 02:33N 38°42' W 009°10'0 0.0
2016-May-21 01:33N 38°42' W 009°10'0 0.0
2016-May-21 00:33N 38°42' W 009°10'0 0.0
2016-May-20 23:33N 38°42' W 009°10'0 0.0
2016-May-20 22:33N 38°42' W 009°10'0 0.0
2016-May-20 21:33N 38°42' W 009°10'0 0.0
2016-May-20 20:33N 38°42' W 009°10'0 0.0
2016-May-20 19:33N 38°42' W 009°10'0 0.0
2016-May-20 18:33N 38°42' W 009°10'0 0.0
2016-May-20 17:33N 38°42' W 009°10'2 1.7
2016-May-20 16:33N 38°41' W 009°11'0 0.2
2016-May-20 15:33N 38°41' W 009°11'2 2.1
2016-May-20 14:33N 38°40' W 009°09'2 2.0
2016-May-20 13:33N 38°42' W 009°10'0 0.0
2016-May-20 12:33N 38°42' W 009°10'0 0.0
2016-May-20 11:33N 38°42' W 009°10'0 0.0
2016-May-20 10:33N 38°42' W 009°10'0 0.0
2016-May-20 09:33N 38°42' W 009°10'0 0.0
2016-May-20 08:33N 38°42' W 009°10'1 1.3
2016-May-20 07:33N 38°41' W 009°11'1 1.3
2016-May-20 06:33N 38°42' W 009°10'0 0.0
2016-May-20 05:33N 38°42' W 009°10'1 1.4
2016-May-20 04:32N 38°42' W 009°08'1 1.5
2016-May-20 03:33N 38°42' W 009°10'1 1.2
2016-May-20 02:33N 38°41' W 009°11'3 3.3
2016-May-20 01:34N 38°41' W 009°15'0 0.3
2016-May-20 00:33N 38°41' W 009°15'2 2.0
2016-May-19 23:32N 38°41' W 009°12'2 2.2
2016-May-19 22:33N 38°42' W 009°10'0 0.0
2016-May-19 21:32N 38°42' W 009°10'0 0.0
2016-May-19 20:33N 38°42' W 009°10'0 0.0
2016-May-19 19:34N 38°42' W 009°10'0 0.0
2016-May-19 18:33N 38°42' W 009°10'0 0.0
2016-May-19 17:33N 38°42' W 009°10'0 0.0
2016-May-19 16:33N 38°42' W 009°10'0 0.0
2016-May-19 15:33N 38°42' W 009°10'0 0.0
2016-May-19 14:33N 38°42' W 009°10'0 0.0
2016-May-19 13:33N 38°42' W 009°10'3 3.0
2016-May-19 12:33N 38°41' W 009°13'9 8.8
2016-May-19 11:33N 38°35' W 009°22'9 8.8
2016-May-19 10:34N 38°27' W 009°19'8 8.1
2016-May-19 09:33N 38°19' W 009°15'8 8.4
2016-May-19 08:33N 38°11' W 009°12'8 8.3
2016-May-19 07:34N 38°04' W 009°07'9 8.6
2016-May-19 06:34N 37°55' W 009°07'9 8.6
2016-May-19 05:33N 37°47' W 009°10'8 8.4
2016-May-19 04:33N 37°39' W 009°12'47 5.6
2016-May-18 20:10N 36°55' W 008°51'1710.0
2016-May-18 18:25N 37°05' W 008°34'2 0.2
2016-May-18 06:09N 37°07' W 008°32'1 0.9
2016-May-18 05:22N 37°07' W 008°32'0 0.1
2016-May-18 02:10N 37°08' W 008°32'3 5.5
2016-May-18 01:33N 37°05' W 008°34'9 9.5
2016-May-18 00:34N 36°59' W 008°43'29 7.1
2016-May-17 20:28N 37°04' W 009°19'10 9.9
2016-May-17 19:30N 37°14' W 009°20'2210.0
2016-May-17 17:21N 37°35' W 009°21'810.5
2016-May-17 16:34N 37°43' W 009°21'1110.5
2016-May-17 15:33N 37°54' W 009°19'1010.3
2016-May-17 14:33N 38°04' W 009°20'1010.5
2016-May-17 13:34N 38°15' W 009°22'1010.4
2016-May-17 12:33N 38°25' W 009°23'1010.1
2016-May-17 11:34N 38°35' W 009°24'9 8.6
2016-May-17 10:33N 38°41' W 009°16'5 4.9
2016-May-17 09:33N 38°42' W 009°10'0 0.0
2016-May-17 08:33N 38°42' W 009°10'0 0.0
2016-May-17 07:34N 38°42' W 009°10'0 0.0
2016-May-17 06:33N 38°42' W 009°10'0 0.0
2016-May-17 05:34N 38°42' W 009°10'0 0.0
2016-May-17 04:33N 38°42' W 009°10'0 0.0
2016-May-17 03:33N 38°42' W 009°10'0 0.0
2016-May-17 02:33N 38°42' W 009°10'0 0.0
2016-May-17 01:33N 38°42' W 009°10'0 0.0
2016-May-17 00:34N 38°42' W 009°10'0 0.0
2016-May-16 23:33N 38°42' W 009°10'0 0.0
2016-May-16 22:33N 38°42' W 009°10'0 0.0
2016-May-16 21:33N 38°42' W 009°10'0 0.0
2016-May-16 20:34N 38°42' W 009°10'0 0.0
2016-May-16 19:34N 38°42' W 009°10'0 0.0
2016-May-16 18:33N 38°42' W 009°10'0 0.0
2016-May-16 17:33N 38°42' W 009°10'0 0.0
2016-May-16 16:34N 38°42' W 009°10'0 0.0
2016-May-16 15:33N 38°42' W 009°10'0 0.0
2016-May-16 14:33N 38°42' W 009°10'0 0.0
2016-May-16 13:33N 38°42' W 009°10'0 0.0
2016-May-16 12:33N 38°42' W 009°10'3 3.3
2016-May-16 11:33N 38°44' W 009°06'3 3.4
2016-May-16 10:34N 38°42' W 009°10'1 1.0
2016-May-16 09:34N 38°42' W 009°08'1 0.9
2016-May-16 08:33N 38°42' W 009°09'0 0.2
2016-May-16 07:33N 38°42' W 009°10'2 2.3
2016-May-16 06:33N 38°40' W 009°09'2 2.3
2016-May-16 05:33N 38°42' W 009°10'0 0.0
2016-May-16 04:33N 38°42' W 009°10'0 0.0
2016-May-16 03:33N 38°42' W 009°10'0 0.0
2016-May-16 02:34N 38°42' W 009°10'0 0.0
2016-May-16 01:33N 38°42' W 009°10'0 0.0
2016-May-16 00:33N 38°42' W 009°10'0 0.0
2016-May-15 23:33N 38°42' W 009°10'2 2.2
2016-May-15 22:33N 38°41' W 009°12'2 2.2
2016-May-15 21:33N 38°42' W 009°10'2 1.8
2016-May-15 20:33N 38°40' W 009°09'2 1.7
2016-May-15 19:33N 38°42' W 009°09'0 0.4
2016-May-15 18:34N 38°42' W 009°10'0 0.0
2016-May-15 17:33N 38°42' W 009°10'0 0.0
2016-May-15 16:33N 38°42' W 009°10'0 0.0
2016-May-15 15:33N 38°42' W 009°10'0 0.0
2016-May-15 14:33N 38°42' W 009°10'0 0.0
2016-May-15 13:33N 38°42' W 009°10'0 0.0
2016-May-15 12:33N 38°42' W 009°10'0 0.0
2016-May-15 11:34N 38°42' W 009°10'5 4.9
2016-May-15 10:33N 38°41' W 009°04'5 4.6
2016-May-15 09:33N 38°42' W 009°09'0 0.4
2016-May-15 08:33N 38°42' W 009°10'0 0.0
2016-May-15 07:33N 38°42' W 009°10'0 0.0
2016-May-15 06:33N 38°42' W 009°10'0 0.0
2016-May-15 05:33N 38°42' W 009°10'0 0.0
2016-May-15 04:33N 38°42' W 009°10'0 0.0
2016-May-15 03:33N 38°42' W 009°10'5 4.6
2016-May-15 02:33N 38°41' W 009°15'6 6.4
2016-May-15 01:33N 38°37' W 009°21'8 8.4
2016-May-15 00:33N 38°29' W 009°18'8 8.5
2016-May-14 23:34N 38°21' W 009°14'9 8.7
2016-May-14 22:33N 38°13' W 009°09'8 8.5
2016-May-14 21:33N 38°06' W 009°03'8 8.5
2016-May-14 20:33N 37°59' W 008°56'6 5.8
2016-May-14 19:33N 37°56' W 008°51'1 1.5
2016-May-14 18:33N 37°57' W 008°52'0 0.0
2016-May-14 17:33N 37°57' W 008°52'0 0.0
2016-May-14 16:33N 37°57' W 008°52'0 0.0
2016-May-14 15:33N 37°57' W 008°52'0 0.0
2016-May-14 14:33N 37°57' W 008°52'0 0.0
2016-May-14 13:33N 37°57' W 008°52'0 0.0
2016-May-14 12:33N 37°57' W 008°52'0 0.0
2016-May-14 11:33N 37°57' W 008°52'0 0.0
2016-May-14 10:33N 37°57' W 008°52'0 0.0
2016-May-14 09:33N 37°57' W 008°52'0 0.0
2016-May-14 08:33N 37°57' W 008°52'0 0.0
2016-May-14 07:33N 37°57' W 008°52'0 0.0
2016-May-14 06:33N 37°57' W 008°52'0 0.0
2016-May-14 05:33N 37°57' W 008°52'  
Track history (hours):
 
Tides and Currents Weather Stations Pressure Air Temp Water Temp Dewpoint Dewpoint Depression Visibility Wind Speed Wind Dir Waves Ship Positions

Svitzer Sines

Last reported at 2016-May-24 04:33 UTC. Time now 2016-May-24 06:08 UTC.
Position N 38°42' W 009°10'.

Length 26 m; draft 4 m.

Type: Tug. MMSI: 263601890.

Date/timePositionNaut miles runAvg speedWind from/ knotsBaromVisibWave heightAir tempDewpointWater temp
2016-May-24 04:33N 38°42' W 009°10'0 0.0
2016-May-24 03:33N 38°42' W 009°10'0 0.0
2016-May-24 02:33N 38°42' W 009°10'0 0.0
2016-May-24 01:33N 38°42' W 009°10'0 0.0
2016-May-24 00:33N 38°42' W 009°10'0 0.0
2016-May-23 23:33N 38°42' W 009°10'0 0.0
2016-May-23 22:33N 38°42' W 009°10'0 0.0
2016-May-23 21:33N 38°42' W 009°10'0 0.0
2016-May-23 20:33N 38°42' W 009°10'0 0.0
2016-May-23 19:33N 38°42' W 009°10'0 0.0
2016-May-23 18:33N 38°42' W 009°10'0 0.0
2016-May-23 17:33N 38°42' W 009°10'0 0.0
2016-May-23 16:33N 38°42' W 009°10'2 1.7
2016-May-23 15:33N 38°41' W 009°11'2 1.7
2016-May-23 14:33N 38°42' W 009°10'0 0.1
2016-May-23 13:33N 38°42' W 009°10'0 0.0
2016-May-23 12:33N 38°42' W 009°10'0 0.3
2016-May-23 11:33N 38°42' W 009°09'2 2.0
2016-May-23 10:33N 38°40' W 009°09'2 2.1
2016-May-23 09:33N 38°42' W 009°10'2 2.0
2016-May-23 08:33N 38°40' W 009°09'2 2.1
2016-May-23 07:33N 38°42' W 009°10'0 0.0
2016-May-23 06:33N 38°42' W 009°10'0 0.0
2016-May-23 05:33N 38°42' W 009°10'1 0.9
2016-May-23 04:33N 38°42' W 009°11'3 2.8
2016-May-23 03:33N 38°41' W 009°14'2 2.5
2016-May-23 02:33N 38°42' W 009°11'1 1.3
2016-May-23 01:33N 38°42' W 009°10'0 0.0
2016-May-23 00:33N 38°42' W 009°10'0 0.0
2016-May-22 23:33N 38°42' W 009°10'0 0.0
2016-May-22 22:33N 38°42' W 009°10'0 0.0
2016-May-22 21:33N 38°42' W 009°10'0 0.0
2016-May-22 20:33N 38°42' W 009°10'0 0.0
2016-May-22 19:33N 38°42' W 009°10'0 0.0
2016-May-22 18:33N 38°42' W 009°10'0 0.0
2016-May-22 17:33N 38°42' W 009°10'0 0.0
2016-May-22 16:33N 38°42' W 009°10'5 4.9
2016-May-22 15:33N 38°41' W 009°04'6 5.6
2016-May-22 14:32N 38°41' W 009°11'1 0.8
2016-May-22 13:33N 38°42' W 009°10'1 0.6
2016-May-22 12:33N 38°42' W 009°10'0 0.0
2016-May-22 11:33N 38°42' W 009°10'0 0.0
2016-May-22 10:33N 38°42' W 009°10'0 0.2
2016-May-22 09:33N 38°42' W 009°09'0 0.1
2016-May-22 08:33N 38°42' W 009°09'0 0.2
2016-May-22 07:33N 38°42' W 009°09'0 0.3
2016-May-22 06:33N 38°42' W 009°10'2 1.9
2016-May-22 05:33N 38°40' W 009°08'1 1.3
2016-May-22 04:33N 38°42' W 009°08'1 1.1
2016-May-22 03:33N 38°42' W 009°10'0 0.0
2016-May-22 02:33N 38°42' W 009°10'0 0.0
2016-May-22 01:33N 38°42' W 009°10'0 0.0
2016-May-22 00:33N 38°42' W 009°10'0 0.0
2016-May-21 23:33N 38°42' W 009°10'0 0.0
2016-May-21 22:33N 38°42' W 009°10'0 0.0
2016-May-21 21:33N 38°42' W 009°10'0 0.0
2016-May-21 20:33N 38°42' W 009°10'0 0.0
2016-May-21 19:33N 38°42' W 009°10'0 0.0
2016-May-21 18:33N 38°42' W 009°10'1 0.7
2016-May-21 17:33N 38°42' W 009°10'0 0.4
2016-May-21 16:33N 38°42' W 009°10'0 0.3
2016-May-21 15:33N 38°42' W 009°10'0 0.0
2016-May-21 14:33N 38°42' W 009°10'0 0.0
2016-May-21 13:33N 38°42' W 009°10'0 0.0
2016-May-21 12:32N 38°42' W 009°10'1 0.6
2016-May-21 11:33N 38°42' W 009°10'5 4.7
2016-May-21 10:33N 38°41' W 009°04'4 4.1
2016-May-21 09:34N 38°42' W 009°10'0 0.3
2016-May-21 08:33N 38°42' W 009°10'1 0.9
2016-May-21 07:33N 38°42' W 009°09'1 0.9
2016-May-21 06:33N 38°42' W 009°10'0 0.0
2016-May-21 05:33N 38°42' W 009°10'0 0.0
2016-May-21 04:33N 38°42' W 009°10'0 0.0
2016-May-21 03:33N 38°42' W 009°10'0 0.0
2016-May-21 02:33N 38°42' W 009°10'0 0.0
2016-May-21 01:33N 38°42' W 009°10'0 0.0
2016-May-21 00:33N 38°42' W 009°10'0 0.0
2016-May-20 23:33N 38°42' W 009°10'0 0.0
2016-May-20 22:33N 38°42' W 009°10'0 0.0
2016-May-20 21:33N 38°42' W 009°10'0 0.0
2016-May-20 20:33N 38°42' W 009°10'0 0.0
2016-May-20 19:33N 38°42' W 009°10'0 0.0
2016-May-20 18:33N 38°42' W 009°10'0 0.0
2016-May-20 17:33N 38°42' W 009°10'2 1.7
2016-May-20 16:33N 38°41' W 009°11'0 0.2
2016-May-20 15:33N 38°41' W 009°11'2 2.1
2016-May-20 14:33N 38°40' W 009°09'2 2.0
2016-May-20 13:33N 38°42' W 009°10'0 0.0
2016-May-20 12:33N 38°42' W 009°10'0 0.0
2016-May-20 11:33N 38°42' W 009°10'0 0.0
2016-May-20 10:33N 38°42' W 009°10'0 0.0
2016-May-20 09:33N 38°42' W 009°10'0 0.0
2016-May-20 08:33N 38°42' W 009°10'1 1.3
2016-May-20 07:33N 38°41' W 009°11'1 1.3
2016-May-20 06:33N 38°42' W 009°10'0 0.0
2016-May-20 05:33N 38°42' W 009°10'1 1.4
2016-May-20 04:32N 38°42' W 009°08'1 1.5
2016-May-20 03:33N 38°42' W 009°10'1 1.2
2016-May-20 02:33N 38°41' W 009°11'3 3.3
2016-May-20 01:34N 38°41' W 009°15'0 0.3
2016-May-20 00:33N 38°41' W 009°15'2 2.0
2016-May-19 23:32N 38°41' W 009°12'2 2.2
2016-May-19 22:33N 38°42' W 009°10'0 0.0
2016-May-19 21:32N 38°42' W 009°10'0 0.0
2016-May-19 20:33N 38°42' W 009°10'0 0.0
2016-May-19 19:34N 38°42' W 009°10'0 0.0
2016-May-19 18:33N 38°42' W 009°10'0 0.0
2016-May-19 17:33N 38°42' W 009°10'0 0.0
2016-May-19 16:33N 38°42' W 009°10'0 0.0
2016-May-19 15:33N 38°42' W 009°10'0 0.0
2016-May-19 14:33N 38°42' W 009°10'0 0.0
2016-May-19 13:33N 38°42' W 009°10'3 3.0
2016-May-19 12:33N 38°41' W 009°13'9 8.8
2016-May-19 11:33N 38°35' W 009°22'9 8.8
2016-May-19 10:34N 38°27' W 009°19'8 8.1
2016-May-19 09:33N 38°19' W 009°15'8 8.4
2016-May-19 08:33N 38°11' W 009°12'8 8.3
2016-May-19 07:34N 38°04' W 009°07'9 8.6
2016-May-19 06:34N 37°55' W 009°07'9 8.6
2016-May-19 05:33N 37°47' W 009°10'8 8.4
2016-May-19 04:33N 37°39' W 009°12'47 5.6
2016-May-18 20:10N 36°55' W 008°51'1710.0
2016-May-18 18:25N 37°05' W 008°34'2 0.2
2016-May-18 06:09N 37°07' W 008°32'1 0.9
2016-May-18 05:22N 37°07' W 008°32'0 0.1
2016-May-18 02:10N 37°08' W 008°32'3 5.5
2016-May-18 01:33N 37°05' W 008°34'9 9.5
2016-May-18 00:34N 36°59' W 008°43'29 7.1
2016-May-17 20:28N 37°04' W 009°19'10 9.9
2016-May-17 19:30N 37°14' W 009°20'2210.0
2016-May-17 17:21N 37°35' W 009°21'810.5
2016-May-17 16:34N 37°43' W 009°21'1110.5
2016-May-17 15:33N 37°54' W 009°19'1010.3
2016-May-17 14:33N 38°04' W 009°20'1010.5
2016-May-17 13:34N 38°15' W 009°22'1010.4
2016-May-17 12:33N 38°25' W 009°23'1010.1
2016-May-17 11:34N 38°35' W 009°24'9 8.6
2016-May-17 10:33N 38°41' W 009°16'5 4.9
2016-May-17 09:33N 38°42' W 009°10'0 0.0
2016-May-17 08:33N 38°42' W 009°10'0 0.0
2016-May-17 07:34N 38°42' W 009°10'0 0.0
2016-May-17 06:33N 38°42' W 009°10'0 0.0
2016-May-17 05:34N 38°42' W 009°10'0 0.0
2016-May-17 04:33N 38°42' W 009°10'0 0.0
2016-May-17 03:33N 38°42' W 009°10'0 0.0
2016-May-17 02:33N 38°42' W 009°10'0 0.0
2016-May-17 01:33N 38°42' W 009°10'0 0.0
2016-May-17 00:34N 38°42' W 009°10'0 0.0
2016-May-16 23:33N 38°42' W 009°10'0 0.0
2016-May-16 22:33N 38°42' W 009°10'0 0.0
2016-May-16 21:33N 38°42' W 009°10'0 0.0
2016-May-16 20:34N 38°42' W 009°10'0 0.0
2016-May-16 19:34N 38°42' W 009°10'0 0.0
2016-May-16 18:33N 38°42' W 009°10'0 0.0
2016-May-16 17:33N 38°42' W 009°10'0 0.0
2016-May-16 16:34N 38°42' W 009°10'0 0.0
2016-May-16 15:33N 38°42' W 009°10'0 0.0
2016-May-16 14:33N 38°42' W 009°10'0 0.0
2016-May-16 13:33N 38°42' W 009°10'0 0.0
2016-May-16 12:33N 38°42' W 009°10'3 3.3
2016-May-16 11:33N 38°44' W 009°06'3 3.4
2016-May-16 10:34N 38°42' W 009°10'1 1.0
2016-May-16 09:34N 38°42' W 009°08'1 0.9
2016-May-16 08:33N 38°42' W 009°09'0 0.2
2016-May-16 07:33N 38°42' W 009°10'2 2.3
2016-May-16 06:33N 38°40' W 009°09'2 2.3
2016-May-16 05:33N 38°42' W 009°10'0 0.0
2016-May-16 04:33N 38°42' W 009°10'0 0.0
2016-May-16 03:33N 38°42' W 009°10'0 0.0
2016-May-16 02:34N 38°42' W 009°10'0 0.0
2016-May-16 01:33N 38°42' W 009°10'0 0.0
2016-May-16 00:33N 38°42' W 009°10'0 0.0
2016-May-15 23:33N 38°42' W 009°10'2 2.2
2016-May-15 22:33N 38°41' W 009°12'2 2.2
2016-May-15 21:33N 38°42' W 009°10'2 1.8
2016-May-15 20:33N 38°40' W 009°09'2 1.7
2016-May-15 19:33N 38°42' W 009°09'0 0.4
2016-May-15 18:34N 38°42' W 009°10'0 0.0
2016-May-15 17:33N 38°42' W 009°10'0 0.0
2016-May-15 16:33N 38°42' W 009°10'0 0.0
2016-May-15 15:33N 38°42' W 009°10'0 0.0
2016-May-15 14:33N 38°42' W 009°10'0 0.0
2016-May-15 13:33N 38°42' W 009°10'0 0.0
2016-May-15 12:33N 38°42' W 009°10'0 0.0
2016-May-15 11:34N 38°42' W 009°10'5 4.9
2016-May-15 10:33N 38°41' W 009°04'5 4.6
2016-May-15 09:33N 38°42' W 009°09'0 0.4
2016-May-15 08:33N 38°42' W 009°10'0 0.0
2016-May-15 07:33N 38°42' W 009°10'0 0.0
2016-May-15 06:33N 38°42' W 009°10'0 0.0
2016-May-15 05:33N 38°42' W 009°10'0 0.0
2016-May-15 04:33N 38°42' W 009°10'0 0.0
2016-May-15 03:33N 38°42' W 009°10'5 4.6
2016-May-15 02:33N 38°41' W 009°15'6 6.4
2016-May-15 01:33N 38°37' W 009°21'8 8.4
2016-May-15 00:33N 38°29' W 009°18'8 8.5
2016-May-14 23:34N 38°21' W 009°14'9 8.7
2016-May-14 22:33N 38°13' W 009°09'8 8.5
2016-May-14 21:33N 38°06' W 009°03'8 8.5
2016-May-14 20:33N 37°59' W 008°56'6 5.8
2016-May-14 19:33N 37°56' W 008°51'1 1.5
2016-May-14 18:33N 37°57' W 008°52'0 0.0
2016-May-14 17:33N 37°57' W 008°52'0 0.0
2016-May-14 16:33N 37°57' W 008°52'0 0.0
2016-May-14 15:33N 37°57' W 008°52'0 0.0
2016-May-14 14:33N 37°57' W 008°52'0 0.0
2016-May-14 13:33N 37°57' W 008°52'0 0.0
2016-May-14 12:33N 37°57' W 008°52'0 0.0
2016-May-14 11:33N 37°57' W 008°52'0 0.0
2016-May-14 10:33N 37°57' W 008°52'0 0.0
2016-May-14 09:33N 37°57' W 008°52'0 0.0
2016-May-14 08:33N 37°57' W 008°52'0 0.0
2016-May-14 07:33N 37°57' W 008°52'0 0.0
2016-May-14 06:33N 37°57' W 008°52'0 0.0
2016-May-14 05:33N 37°57' W 008°52'  

Dump ship's entire track history